This is the latest recevied weather packets stored in our database for station/object K2ATL. If no packets are shown the sender has not sent any weather packets the latest 10 day(s).
| Time | Temp. | Humidity | Pressure | Rain* | Wind** | Luminosity | Snow |
|---|---|---|---|---|---|---|---|
| 1777576927 | 16.67° C | 48% | 1097.3 hPa | 0 mm | - | 540 W/m² | - |
| 1777576623 | 16.67° C | 51% | 1097.4 hPa | 0 mm | - | 500 W/m² | - |
| 1777576318 | 16.67° C | 51% | 1097.3 hPa | 0 mm | - | 619 W/m² | - |
| 1777576014 | 17.22° C | 53% | 1097.3 hPa | 0 mm | - | 604 W/m² | - |
| 1777575711 | 16.67° C | 53% | 1097.1 hPa | 0 mm | - | 721 W/m² | - |
| 1777575407 | 16.67° C | 49% | 1097.1 hPa | 0 mm | - | 813 W/m² | - |
| 1777575103 | 16.67° C | 51% | 1097.2 hPa | 0 mm | - | 700 W/m² | - |
| 1777574798 | 16.67° C | 53% | 1097.1 hPa | 0 mm | - | 725 W/m² | - |
| 1777574497 | 16.11° C | 57% | 1097.1 hPa | 0 mm | - | 573 W/m² | - |
| 1777574192 | 16.67° C | 54% | 1097 hPa | 0 mm | - | 721 W/m² | - |
| 1777573887 | 16.67° C | 56% | 1097.2 hPa | 0 mm | - | 710 W/m² | - |
| 1777573582 | 15.56° C | 58% | 1097.3 hPa | 0 mm | - | 527 W/m² | - |
| 1777573279 | 16.11° C | 56% | 1097.1 hPa | 0 mm | - | 631 W/m² | - |
| 1777572975 | 15.56° C | 57% | 1097.1 hPa | 0 mm | - | 564 W/m² | - |
| 1777572671 | 15.56° C | 57% | 1097 hPa | 0 mm | - | 709 W/m² | - |
| 1777572371 | 15.56° C | 56% | 1097 hPa | 0 mm | - | 604 W/m² | - |
| 1777572068 | 15.56° C | 57% | 1097.2 hPa | 0 mm | - | 643 W/m² | - |
| 1777571768 | 15.56° C | 57% | 1097.3 hPa | 0 mm | - | 831 W/m² | - |
| 1777571465 | 15.56° C | 57% | 1097.3 hPa | 0 mm | - | 665 W/m² | - |
| 1777571161 | 15.56° C | 57% | 1097.2 hPa | 0 mm | - | 721 W/m² | - |
| 1777570857 | 15.56° C | 57% | 1097.6 hPa | 0 mm | - | 725 W/m² | - |
| 1777570553 | 15.56° C | 59% | 1097.2 hPa | 0 mm | - | 772 W/m² | - |
| 1777570250 | 15° C | 59% | 1097.2 hPa | 0 mm | - | 681 W/m² | - |
| 1777569945 | 15.56° C | 56% | 1097.5 hPa | 0 mm | - | 816 W/m² | - |
| 1777569642 | 15.56° C | 61% | 1097.5 hPa | 0 mm | - | 820 W/m² | - |
* Rain latest hour (hover to see other rain measurements)
** Current wind speed in m/s (hover to see current wind gust speed)